Portada
METAR-TAF:

METAR-TAF

Aeropuertos :

Jartum, Sudán

Aeropuerto Internacional de Jartum

latitud: 15-36N, longitud: 032-33E, altitud: 382 m

Observación

El informe se hizo hace 25 minutos, a las 09:30 UTC
Viento 12 kt del norte-noroeste
Temperatura 35°C
Humedad 10%
Presión 1012 hPa
Visibilidad 10 km o más
sin nubes por debajo de 1500 m y sin presencia de cumulonimbus.

METAR: HSSS 230930Z 34012KT CAVOK 35/M01 Q1012 NOSIG

Hora: 12:55 (09:55 UTC)

Pronóstico

El informe se hizo hace 4 horas y 55 minutos, a las 05:00 UTC
Pronóstico válido del 23 a las 06 UTC al 24 a las 12 UTC
Viento 10 kt del norte con ráfagas de 20 kt
Visibilidad 10 km o más
sin nubes por debajo de 1500 m y sin presencia de cumulonimbus.

TAF: HSSS 230500Z 2306/2412 36010G20KT CAVOK

Observaciones y pronósticos meteorológicos de más de 4000 aeropuertos (mensajes METAR y TAF).

Los puntos amarillos y rojos representan las estaciones disponibles.

Ponga el ratón en el punto deseado para ver el nombre de la estación.

Haga clic para ver las observaciones y los pronósticos meteorológicos.

Para cambiar el mapa : haga clic en los botones verdes con una cruz de color negro para hacer un zoom, en el botón verde con un guión para alejar o en las flechas verdes para mapas adyacentes.


METAR-TAF: